createdAt,value
2017-08-31T00:00:05.829Z,20.7
2017-08-31T00:01:07.217Z,20.7
2017-08-31T00:02:08.610Z,20.7
2017-08-31T00:03:10.000Z,20.7
2017-08-31T00:04:11.390Z,20.6
2017-08-31T00:05:12.781Z,20.5
2017-08-31T00:06:14.175Z,20.5
2017-08-31T00:07:15.570Z,20.7
2017-08-31T00:08:16.962Z,20.6
2017-08-31T00:09:18.354Z,20.7
2017-08-31T00:10:19.748Z,20.5
2017-08-31T00:11:21.136Z,20.6
2017-08-31T00:12:22.529Z,20.6
2017-08-31T00:13:23.921Z,20.3
2017-08-31T00:14:25.311Z,20.4
2017-08-31T00:15:26.705Z,20.1
2017-08-31T00:16:28.103Z,20.2
2017-08-31T00:17:29.490Z,20.0
2017-08-31T00:18:30.883Z,20.0
2017-08-31T00:19:32.275Z,20.0
2017-08-31T00:20:33.667Z,19.9
2017-08-31T00:21:35.061Z,19.9
2017-08-31T00:22:36.453Z,19.6
2017-08-31T00:23:37.845Z,19.6
2017-08-31T00:24:39.236Z,19.5
2017-08-31T00:25:40.627Z,19.6
2017-08-31T00:26:42.021Z,19.5
2017-08-31T00:27:43.413Z,19.5
2017-08-31T00:28:44.807Z,19.4
2017-08-31T00:29:46.196Z,19.5
2017-08-31T00:30:47.588Z,19.4
2017-08-31T00:31:48.978Z,19.4
2017-08-31T00:32:50.373Z,19.3
2017-08-31T00:33:51.766Z,19.3
2017-08-31T00:34:53.158Z,19.3
2017-08-31T00:35:54.553Z,19.2
2017-08-31T00:36:55.946Z,19.1
2017-08-31T00:37:57.335Z,19.1
2017-08-31T00:38:58.724Z,19.1
2017-08-31T00:40:00.122Z,19.0
2017-08-31T00:41:01.510Z,18.9
2017-08-31T00:42:02.904Z,18.7
2017-08-31T00:43:04.298Z,18.6
2017-08-31T00:44:05.729Z,18.6
2017-08-31T00:45:07.120Z,18.5
2017-08-31T00:46:08.508Z,18.4
2017-08-31T00:47:09.900Z,18.4
2017-08-31T00:48:11.293Z,18.4
2017-08-31T00:49:12.687Z,18.3
2017-08-31T00:50:14.081Z,18.3
2017-08-31T00:51:15.470Z,18.3
2017-08-31T00:52:16.862Z,18.3
2017-08-31T00:53:18.251Z,18.1
2017-08-31T00:54:19.643Z,18.0
2017-08-31T00:55:21.034Z,18.0
2017-08-31T00:56:22.429Z,18.0
2017-08-31T00:57:23.823Z,18.0
2017-08-31T00:58:25.212Z,17.9
2017-08-31T00:59:26.603Z,17.9
2017-08-31T01:00:27.994Z,17.9
2017-08-31T01:01:29.402Z,17.9
2017-08-31T01:02:30.794Z,17.9
2017-08-31T01:03:32.189Z,18.0
2017-08-31T01:04:33.584Z,17.9
2017-08-31T01:05:34.974Z,17.9
2017-08-31T01:06:36.363Z,18.0
2017-08-31T01:07:37.753Z,17.8
2017-08-31T01:08:39.141Z,17.9
2017-08-31T01:09:40.535Z,17.9
2017-08-31T01:10:41.929Z,17.8
2017-08-31T01:11:43.321Z,17.8
2017-08-31T01:12:44.711Z,17.8
2017-08-31T01:13:46.099Z,17.8
2017-08-31T01:14:47.494Z,17.8
2017-08-31T01:15:48.880Z,17.8
2017-08-31T01:16:50.269Z,17.9
2017-08-31T01:17:51.661Z,17.8
2017-08-31T01:18:53.052Z,17.8
2017-08-31T01:19:54.443Z,17.8
2017-08-31T01:20:55.834Z,17.6
2017-08-31T01:21:57.237Z,17.7
2017-08-31T01:22:58.633Z,17.6
2017-08-31T01:24:00.021Z,17.6
2017-08-31T01:25:01.416Z,17.6
2017-08-31T01:26:02.807Z,17.6
2017-08-31T01:27:04.195Z,17.6
2017-08-31T01:28:05.585Z,17.6
2017-08-31T01:29:06.974Z,17.5
2017-08-31T01:30:08.368Z,17.5
2017-08-31T01:31:09.759Z,17.4
2017-08-31T01:32:11.152Z,17.5
2017-08-31T01:33:12.541Z,17.5
2017-08-31T01:34:13.932Z,17.5
2017-08-31T01:35:15.320Z,17.5
2017-08-31T01:36:16.713Z,17.4
2017-08-31T01:37:18.104Z,17.4
2017-08-31T01:38:19.497Z,17.3
2017-08-31T01:39:20.890Z,17.4
2017-08-31T01:40:22.281Z,17.3
2017-08-31T01:41:23.671Z,17.3
2017-08-31T01:42:25.060Z,17.3
2017-08-31T01:43:26.451Z,17.3
2017-08-31T01:44:27.842Z,17.3
2017-08-31T01:45:29.236Z,17.3
2017-08-31T01:46:30.649Z,17.3
2017-08-31T01:47:32.041Z,17.3
2017-08-31T01:48:33.431Z,17.4
2017-08-31T01:49:34.820Z,17.4
2017-08-31T01:50:36.210Z,17.3
2017-08-31T01:51:37.603Z,17.4
2017-08-31T01:52:38.993Z,17.4
2017-08-31T01:53:40.385Z,17.3
2017-08-31T01:54:41.778Z,17.4
2017-08-31T01:55:43.166Z,17.2
2017-08-31T01:56:44.558Z,17.2
2017-08-31T01:57:45.946Z,17.3
2017-08-31T01:58:47.341Z,17.2
2017-08-31T01:59:48.734Z,17.2
2017-08-31T02:00:50.083Z,17.2
2017-08-31T02:01:51.474Z,17.2
2017-08-31T02:02:52.860Z,17.2
2017-08-31T02:03:54.252Z,17.3
2017-08-31T02:04:55.642Z,17.3
2017-08-31T02:05:57.040Z,17.2
2017-08-31T02:06:58.431Z,17.2
2017-08-31T02:07:59.826Z,17.2
2017-08-31T02:09:01.221Z,17.1
2017-08-31T02:10:02.612Z,17.1
2017-08-31T02:11:04.001Z,17.1
2017-08-31T02:12:05.390Z,17.2
2017-08-31T02:13:06.787Z,17.1
2017-08-31T02:14:08.179Z,17.1
2017-08-31T02:15:09.573Z,17.1
2017-08-31T02:16:10.962Z,17.1
2017-08-31T02:17:12.353Z,17.1
2017-08-31T02:18:13.750Z,17.0
2017-08-31T02:19:15.177Z,16.9
2017-08-31T02:20:16.566Z,16.9
2017-08-31T02:21:17.958Z,17.0
2017-08-31T02:22:19.351Z,17.0
2017-08-31T02:23:20.741Z,17.1
2017-08-31T02:24:22.128Z,17.0
2017-08-31T02:25:23.518Z,17.0
2017-08-31T02:26:24.907Z,17.0
2017-08-31T02:27:26.299Z,17.1
2017-08-31T02:28:27.690Z,17.0
2017-08-31T02:29:29.084Z,17.1
2017-08-31T02:30:30.474Z,17.1
2017-08-31T02:31:31.885Z,16.9
2017-08-31T02:32:33.272Z,16.9
2017-08-31T02:33:34.658Z,17.0
2017-08-31T02:34:36.050Z,16.9
2017-08-31T02:35:37.441Z,16.9
2017-08-31T02:36:38.832Z,17.0
2017-08-31T02:37:40.229Z,17.0
2017-08-31T02:38:41.612Z,17.0
2017-08-31T02:39:43.010Z,17.0
2017-08-31T02:40:44.391Z,17.0
2017-08-31T02:41:45.780Z,17.0
2017-08-31T02:42:47.171Z,17.0
2017-08-31T02:43:48.563Z,17.0
2017-08-31T02:44:49.955Z,17.1
2017-08-31T02:45:51.344Z,16.9
2017-08-31T02:46:52.733Z,17.0
2017-08-31T02:47:54.122Z,17.0
2017-08-31T02:48:55.515Z,17.0
2017-08-31T02:49:56.902Z,17.0
2017-08-31T02:50:58.294Z,17.0
2017-08-31T02:51:59.687Z,17.0
2017-08-31T02:53:01.071Z,17.0
2017-08-31T02:54:02.464Z,16.9
2017-08-31T02:55:03.855Z,16.9
2017-08-31T02:56:05.249Z,16.9
2017-08-31T02:57:06.639Z,16.9
2017-08-31T02:58:08.030Z,17.0
2017-08-31T02:59:09.422Z,17.0
2017-08-31T03:00:10.812Z,16.9
2017-08-31T03:01:12.203Z,16.9
2017-08-31T03:02:13.593Z,16.9
2017-08-31T03:03:14.985Z,16.9
2017-08-31T03:04:16.372Z,16.9
2017-08-31T03:05:17.766Z,16.9
2017-08-31T03:06:19.161Z,16.8
2017-08-31T03:07:20.555Z,16.9
2017-08-31T03:08:21.943Z,16.8
2017-08-31T03:09:23.330Z,16.8
2017-08-31T03:10:24.720Z,16.8
2017-08-31T03:11:26.112Z,16.7
2017-08-31T03:12:27.505Z,16.8
2017-08-31T03:13:28.895Z,16.7
2017-08-31T03:14:30.280Z,16.7
2017-08-31T03:15:31.671Z,16.7
2017-08-31T03:16:33.062Z,16.7
2017-08-31T03:17:34.469Z,16.7
2017-08-31T03:18:37.431Z,16.7
2017-08-31T03:19:38.824Z,16.7
2017-08-31T03:20:40.217Z,16.7
2017-08-31T03:21:41.606Z,16.6
2017-08-31T03:22:42.997Z,16.7
2017-08-31T03:23:44.383Z,16.6
2017-08-31T03:24:45.775Z,16.6
2017-08-31T03:25:47.165Z,16.6
2017-08-31T03:26:48.559Z,16.6
2017-08-31T03:27:49.948Z,16.6
2017-08-31T03:28:51.335Z,16.6
2017-08-31T03:29:52.727Z,16.5
2017-08-31T03:30:54.119Z,16.5
2017-08-31T03:31:55.509Z,16.5
2017-08-31T03:32:56.902Z,16.5
2017-08-31T03:33:58.292Z,16.5
2017-08-31T03:34:59.684Z,16.5
2017-08-31T03:36:01.071Z,16.6
2017-08-31T03:37:02.460Z,16.5
2017-08-31T03:38:03.848Z,16.5
2017-08-31T03:39:05.236Z,16.5
2017-08-31T03:40:06.625Z,16.6
2017-08-31T03:41:08.019Z,16.4
2017-08-31T03:42:09.412Z,16.5
2017-08-31T03:43:10.802Z,16.5
2017-08-31T03:44:12.191Z,16.5
2017-08-31T03:45:13.582Z,16.6
2017-08-31T03:46:14.972Z,16.6
2017-08-31T03:47:16.363Z,16.6
2017-08-31T03:48:17.762Z,16.6
2017-08-31T03:49:19.149Z,16.6
2017-08-31T03:50:20.535Z,16.6
2017-08-31T03:51:21.929Z,16.5
2017-08-31T03:52:23.310Z,16.5
2017-08-31T03:53:24.700Z,16.5
2017-08-31T03:54:26.088Z,16.4
2017-08-31T03:55:27.480Z,16.4
2017-08-31T03:56:28.873Z,16.4
2017-08-31T03:57:30.260Z,16.3
2017-08-31T03:58:31.650Z,16.2
2017-08-31T03:59:33.038Z,16.2
2017-08-31T04:00:34.435Z,16.3
2017-08-31T04:01:35.826Z,16.3
2017-08-31T04:02:37.215Z,16.3
2017-08-31T04:03:38.609Z,16.3
2017-08-31T04:04:39.995Z,16.2
2017-08-31T04:05:41.387Z,16.3
2017-08-31T04:06:42.776Z,16.2
2017-08-31T04:07:44.168Z,16.2
2017-08-31T04:08:45.557Z,16.2
2017-08-31T04:09:46.951Z,16.1
2017-08-31T04:10:48.344Z,16.0
2017-08-31T04:11:49.731Z,16.1
2017-08-31T04:12:51.118Z,15.9
2017-08-31T04:13:52.509Z,15.9
2017-08-31T04:14:53.898Z,16.0
2017-08-31T04:15:55.291Z,15.9
2017-08-31T04:16:56.684Z,15.9
2017-08-31T04:17:58.078Z,16.0
2017-08-31T04:18:59.467Z,15.9
2017-08-31T04:20:00.857Z,15.9
2017-08-31T04:21:03.948Z,16.0
2017-08-31T04:22:05.337Z,15.8
2017-08-31T04:23:06.734Z,15.9
2017-08-31T04:24:08.120Z,15.9
2017-08-31T04:25:09.512Z,15.9
2017-08-31T04:26:10.903Z,15.8
2017-08-31T04:27:12.293Z,15.9
2017-08-31T04:28:13.679Z,15.8
2017-08-31T04:29:15.074Z,15.9
2017-08-31T04:30:16.460Z,15.9
2017-08-31T04:31:17.847Z,15.8
2017-08-31T04:32:19.239Z,15.8
2017-08-31T04:33:20.630Z,15.9
2017-08-31T04:34:22.018Z,15.8
2017-08-31T04:35:23.408Z,15.9
2017-08-31T04:36:24.796Z,15.9
2017-08-31T04:37:26.189Z,15.9
2017-08-31T04:38:27.580Z,15.9
2017-08-31T04:39:28.971Z,16.0
2017-08-31T04:40:30.357Z,16.1
2017-08-31T04:41:31.749Z,15.9
2017-08-31T04:42:33.139Z,15.9
2017-08-31T04:43:34.721Z,16.0
2017-08-31T04:44:36.122Z,15.9
2017-08-31T04:45:37.513Z,15.9
2017-08-31T04:46:38.902Z,15.9
2017-08-31T04:47:40.305Z,15.9
2017-08-31T04:48:41.698Z,16.0
2017-08-31T04:49:43.087Z,16.0
2017-08-31T04:50:44.479Z,15.9
2017-08-31T04:51:45.875Z,16.0
2017-08-31T04:52:47.266Z,16.0
2017-08-31T04:53:48.660Z,15.9
2017-08-31T04:54:50.047Z,15.9
2017-08-31T04:55:51.435Z,15.9
2017-08-31T04:56:52.827Z,15.8
2017-08-31T04:57:54.219Z,15.8
2017-08-31T04:58:55.608Z,15.9
2017-08-31T04:59:56.999Z,15.9
2017-08-31T05:00:58.394Z,15.9
2017-08-31T05:01:59.783Z,15.9
2017-08-31T05:03:01.174Z,15.9
2017-08-31T05:04:02.564Z,16.0
2017-08-31T05:05:03.955Z,15.9
2017-08-31T05:06:05.348Z,15.9
2017-08-31T05:07:06.737Z,15.9
2017-08-31T05:08:08.130Z,15.9
2017-08-31T05:09:09.522Z,15.9
2017-08-31T05:10:10.936Z,15.8
2017-08-31T05:11:12.301Z,15.9
2017-08-31T05:12:13.692Z,15.9
2017-08-31T05:13:15.091Z,15.9
2017-08-31T05:14:16.477Z,15.8
2017-08-31T05:15:17.868Z,15.8
2017-08-31T05:16:19.258Z,15.8
2017-08-31T05:17:20.651Z,15.8
2017-08-31T05:18:22.043Z,15.7
2017-08-31T05:19:23.437Z,15.7
2017-08-31T05:20:24.828Z,15.7
2017-08-31T05:21:26.221Z,15.8
2017-08-31T05:22:27.613Z,15.7
2017-08-31T05:23:29.051Z,15.7
2017-08-31T05:24:30.441Z,15.7
2017-08-31T05:25:31.850Z,15.7
2017-08-31T05:26:33.242Z,15.7
2017-08-31T05:27:35.218Z,15.6
2017-08-31T05:28:36.628Z,15.5
2017-08-31T05:29:38.018Z,15.6
2017-08-31T05:30:39.414Z,15.6
2017-08-31T05:31:40.829Z,15.6
2017-08-31T05:32:42.222Z,15.6
2017-08-31T05:33:43.618Z,15.7
2017-08-31T05:34:45.013Z,15.6
2017-08-31T05:35:46.408Z,15.6
2017-08-31T05:36:47.801Z,15.7
2017-08-31T05:37:49.192Z,15.6
2017-08-31T05:38:50.584Z,15.6
2017-08-31T05:39:52.012Z,15.6
2017-08-31T05:40:53.378Z,15.6
2017-08-31T05:41:54.772Z,15.6
2017-08-31T05:42:56.167Z,15.6
2017-08-31T05:43:57.564Z,15.7
2017-08-31T05:44:58.957Z,15.6
2017-08-31T05:46:00.352Z,15.5
2017-08-31T05:47:01.744Z,15.5
2017-08-31T05:48:03.138Z,15.5
2017-08-31T05:49:04.530Z,15.5
2017-08-31T05:50:05.925Z,15.5
2017-08-31T05:51:07.323Z,15.5
2017-08-31T05:52:08.713Z,15.5
2017-08-31T05:53:10.113Z,15.5
2017-08-31T05:54:11.505Z,15.5
2017-08-31T05:55:12.905Z,15.5
2017-08-31T05:56:14.297Z,15.5
2017-08-31T05:57:15.691Z,15.5
2017-08-31T05:58:17.086Z,15.4
2017-08-31T05:59:18.480Z,15.5
2017-08-31T06:00:19.872Z,15.5
2017-08-31T06:01:21.270Z,15.5
2017-08-31T06:02:22.666Z,15.5
2017-08-31T06:03:24.061Z,15.5
2017-08-31T06:04:25.453Z,15.6
2017-08-31T06:05:26.854Z,15.5
2017-08-31T06:06:28.242Z,15.5
2017-08-31T06:07:29.635Z,15.5
2017-08-31T06:08:31.030Z,15.5
2017-08-31T06:09:32.424Z,15.5
2017-08-31T06:10:33.816Z,15.5
2017-08-31T06:11:35.217Z,15.5
2017-08-31T06:12:36.614Z,15.6
2017-08-31T06:13:38.012Z,15.6
2017-08-31T06:14:39.426Z,15.7
2017-08-31T06:15:40.818Z,15.7
2017-08-31T06:16:42.212Z,15.6
2017-08-31T06:17:43.606Z,15.6
2017-08-31T06:18:45.002Z,15.7
2017-08-31T06:19:46.397Z,15.7
2017-08-31T06:20:47.791Z,15.7
2017-08-31T06:21:49.181Z,15.7
2017-08-31T06:22:50.574Z,15.6
2017-08-31T06:23:51.967Z,15.6
2017-08-31T06:24:53.360Z,15.5
2017-08-31T06:25:54.758Z,15.7
2017-08-31T06:26:56.152Z,15.6
2017-08-31T06:27:57.544Z,15.7
2017-08-31T06:28:58.937Z,15.7
2017-08-31T06:30:00.329Z,15.7
2017-08-31T06:31:01.725Z,15.8
2017-08-31T06:32:03.122Z,15.7
2017-08-31T06:33:04.515Z,15.6
2017-08-31T06:34:05.911Z,15.6
2017-08-31T06:35:07.305Z,15.6
2017-08-31T06:36:08.704Z,15.7
2017-08-31T06:37:10.089Z,15.7
2017-08-31T06:38:11.482Z,15.8
2017-08-31T06:39:12.876Z,15.7
2017-08-31T06:40:14.270Z,15.9
2017-08-31T06:41:15.667Z,15.8
2017-08-31T06:42:17.058Z,15.8
2017-08-31T06:43:18.455Z,16.0
2017-08-31T06:44:19.847Z,15.8
2017-08-31T06:45:21.240Z,15.9
2017-08-31T06:46:22.635Z,15.9
2017-08-31T06:47:24.031Z,15.9
2017-08-31T06:48:25.426Z,16.1
2017-08-31T06:49:26.819Z,16.1
2017-08-31T06:50:28.214Z,16.0
2017-08-31T06:51:29.605Z,16.0
2017-08-31T06:52:30.999Z,16.0
2017-08-31T06:53:32.399Z,16.0
2017-08-31T06:54:33.794Z,16.0
2017-08-31T06:55:35.194Z,16.0
2017-08-31T06:56:36.621Z,15.9
2017-08-31T06:57:38.015Z,16.0
2017-08-31T06:58:39.409Z,16.1
2017-08-31T06:59:40.802Z,15.9
2017-08-31T07:00:42.232Z,15.9
2017-08-31T07:01:43.628Z,16.0
2017-08-31T07:02:45.022Z,15.9
2017-08-31T07:03:46.417Z,16.0
2017-08-31T07:04:47.810Z,16.0
2017-08-31T07:05:49.205Z,16.0
2017-08-31T07:06:50.602Z,16.0
2017-08-31T07:07:51.994Z,15.9
2017-08-31T07:08:53.394Z,15.9
2017-08-31T07:09:54.789Z,16.0
2017-08-31T07:10:56.182Z,16.0
2017-08-31T07:11:57.578Z,16.0
2017-08-31T07:12:58.973Z,16.0
2017-08-31T07:14:00.365Z,16.1
2017-08-31T07:15:01.767Z,16.1
2017-08-31T07:16:03.161Z,16.1
2017-08-31T07:17:04.556Z,16.1
2017-08-31T07:18:05.950Z,16.2
2017-08-31T07:19:07.344Z,16.2
2017-08-31T07:20:08.740Z,16.2
2017-08-31T07:21:10.138Z,16.2
2017-08-31T07:22:11.532Z,16.2
2017-08-31T07:23:12.926Z,16.2
2017-08-31T07:24:14.325Z,16.2
2017-08-31T07:25:15.726Z,16.2
2017-08-31T07:26:17.117Z,16.2
2017-08-31T07:27:18.512Z,16.2
2017-08-31T07:28:19.916Z,16.4
2017-08-31T07:29:21.311Z,16.3
2017-08-31T07:30:22.707Z,16.2
2017-08-31T07:31:24.103Z,16.3
2017-08-31T07:32:25.496Z,16.2
2017-08-31T07:33:26.891Z,16.3
2017-08-31T07:34:28.285Z,16.3
2017-08-31T07:35:29.683Z,16.3
2017-08-31T07:36:31.079Z,16.3
2017-08-31T07:37:32.476Z,16.3
2017-08-31T07:38:33.872Z,16.3
2017-08-31T07:39:35.270Z,16.3
2017-08-31T07:40:36.662Z,16.3
2017-08-31T07:41:38.058Z,16.4
2017-08-31T07:42:39.453Z,16.5
2017-08-31T07:43:40.848Z,16.3
2017-08-31T07:44:42.247Z,16.4
2017-08-31T07:45:43.644Z,16.5
2017-08-31T07:46:45.043Z,16.3
2017-08-31T07:47:46.439Z,16.4
2017-08-31T07:48:47.836Z,16.3
2017-08-31T07:49:49.231Z,16.3
2017-08-31T07:50:50.627Z,16.5
2017-08-31T07:51:52.023Z,16.4
2017-08-31T07:52:53.419Z,16.4
2017-08-31T07:53:54.813Z,16.3
2017-08-31T07:54:56.208Z,16.3
2017-08-31T07:55:57.601Z,16.3
2017-08-31T07:56:59.000Z,16.3
2017-08-31T07:58:00.398Z,16.4
2017-08-31T07:59:01.795Z,16.5
2017-08-31T08:00:03.192Z,16.4
2017-08-31T08:01:04.587Z,16.6
2017-08-31T08:02:05.982Z,16.6
2017-08-31T08:03:07.377Z,16.7
2017-08-31T08:04:08.775Z,16.7
2017-08-31T08:05:10.174Z,16.8
2017-08-31T08:06:11.571Z,16.8
2017-08-31T08:07:12.972Z,16.9
2017-08-31T08:08:14.366Z,16.8
2017-08-31T08:09:15.759Z,16.9
2017-08-31T08:10:17.157Z,16.9
2017-08-31T08:11:18.554Z,16.9
2017-08-31T08:12:19.955Z,16.9
2017-08-31T08:13:21.354Z,16.9
2017-08-31T08:14:22.752Z,16.9
2017-08-31T08:15:24.149Z,16.9
2017-08-31T08:16:25.546Z,17.0
2017-08-31T08:17:26.942Z,16.8
2017-08-31T08:18:28.340Z,16.8
2017-08-31T08:19:29.738Z,16.8
2017-08-31T08:20:31.133Z,16.9
2017-08-31T08:21:32.530Z,16.9
2017-08-31T08:22:33.925Z,16.9
2017-08-31T08:23:35.319Z,16.7
2017-08-31T08:24:36.716Z,16.8
2017-08-31T08:25:38.110Z,16.7
2017-08-31T08:26:39.506Z,16.7
2017-08-31T08:27:40.901Z,16.7
2017-08-31T08:28:42.301Z,16.8
2017-08-31T08:29:43.699Z,16.8
2017-08-31T08:30:47.020Z,16.8
2017-08-31T08:31:48.411Z,16.7
2017-08-31T08:32:49.806Z,16.7
2017-08-31T08:33:51.207Z,16.7
2017-08-31T08:34:52.602Z,16.7
2017-08-31T08:35:53.999Z,16.7
2017-08-31T08:36:55.394Z,16.7
2017-08-31T08:37:56.789Z,16.8
2017-08-31T08:38:58.184Z,16.7
2017-08-31T08:39:59.583Z,16.7
2017-08-31T08:41:00.980Z,16.7
2017-08-31T08:42:02.380Z,16.7
2017-08-31T08:43:03.779Z,16.8
2017-08-31T08:44:05.174Z,16.6
2017-08-31T08:45:06.570Z,16.5
2017-08-31T08:46:07.965Z,16.5
2017-08-31T08:47:09.359Z,16.5
2017-08-31T08:48:10.758Z,16.6
2017-08-31T08:49:12.154Z,16.6
2017-08-31T08:50:13.553Z,16.8
2017-08-31T08:51:14.953Z,16.8
2017-08-31T08:52:16.349Z,16.8
2017-08-31T08:53:17.746Z,16.8
2017-08-31T08:54:19.140Z,16.8
2017-08-31T08:55:20.539Z,16.8
2017-08-31T08:56:21.936Z,16.7
2017-08-31T08:57:23.334Z,16.9
2017-08-31T08:58:24.730Z,16.9
2017-08-31T08:59:26.127Z,17.0
2017-08-31T09:00:27.523Z,17.0
2017-08-31T09:01:28.918Z,17.0
2017-08-31T09:02:30.318Z,17.0
2017-08-31T09:03:31.719Z,17.0
2017-08-31T09:04:33.117Z,17.1
2017-08-31T09:05:34.511Z,17.2
2017-08-31T09:06:35.911Z,17.2
2017-08-31T09:07:37.307Z,17.2
2017-08-31T09:08:38.704Z,17.1
2017-08-31T09:09:40.102Z,17.2
2017-08-31T09:10:41.505Z,17.3
2017-08-31T09:11:42.903Z,17.4
2017-08-31T09:12:44.298Z,17.4
2017-08-31T09:13:45.692Z,17.4
2017-08-31T09:14:47.091Z,17.3
2017-08-31T09:15:48.488Z,17.4
2017-08-31T09:16:49.886Z,17.4
2017-08-31T09:17:51.298Z,17.4
2017-08-31T09:18:52.699Z,17.5
2017-08-31T09:19:54.096Z,17.6
2017-08-31T09:20:55.489Z,17.7
2017-08-31T09:21:56.886Z,17.7
2017-08-31T09:22:58.288Z,17.5
2017-08-31T09:23:59.682Z,17.6
2017-08-31T09:25:01.079Z,17.5
2017-08-31T09:26:02.479Z,17.5
2017-08-31T09:27:03.881Z,17.5
2017-08-31T09:28:05.269Z,17.6
2017-08-31T09:29:06.666Z,17.4
2017-08-31T09:30:08.062Z,17.5
2017-08-31T09:31:09.459Z,17.5
2017-08-31T09:32:10.861Z,17.3
2017-08-31T09:33:12.251Z,17.4
2017-08-31T09:34:13.646Z,17.3
2017-08-31T09:35:15.041Z,17.2
2017-08-31T09:36:16.437Z,17.2
2017-08-31T09:37:17.836Z,17.1
2017-08-31T09:38:19.235Z,17.0
2017-08-31T09:39:20.637Z,17.0
2017-08-31T09:40:22.035Z,17.1
2017-08-31T09:41:23.429Z,16.9
2017-08-31T09:42:24.824Z,16.9
2017-08-31T09:43:26.220Z,17.0
2017-08-31T09:44:27.617Z,17.1
2017-08-31T09:45:29.013Z,17.2
2017-08-31T09:46:30.413Z,17.1
2017-08-31T09:47:31.808Z,17.1
2017-08-31T09:48:33.203Z,17.0
2017-08-31T09:49:34.599Z,17.0
2017-08-31T09:50:35.996Z,16.9
2017-08-31T09:51:37.392Z,16.8
2017-08-31T09:52:38.792Z,16.7
2017-08-31T09:53:40.190Z,16.7
2017-08-31T09:54:41.586Z,16.7
2017-08-31T09:55:42.980Z,16.7
2017-08-31T09:56:44.372Z,16.7
2017-08-31T09:57:45.768Z,16.7
2017-08-31T09:58:47.169Z,16.6
2017-08-31T09:59:48.561Z,16.6
2017-08-31T10:00:49.964Z,16.6
2017-08-31T10:01:51.360Z,16.6
2017-08-31T10:02:52.752Z,16.6
2017-08-31T10:03:54.154Z,16.6
2017-08-31T10:04:55.553Z,16.5
2017-08-31T10:05:56.984Z,16.4
2017-08-31T10:06:58.416Z,16.4
2017-08-31T10:07:59.814Z,16.4
2017-08-31T10:09:01.213Z,16.4
2017-08-31T10:10:02.605Z,16.3
2017-08-31T10:11:03.998Z,16.3
2017-08-31T10:12:05.395Z,16.4
2017-08-31T10:13:06.789Z,16.4
2017-08-31T10:14:08.183Z,16.4
2017-08-31T10:15:09.582Z,16.5
2017-08-31T10:16:10.977Z,16.5
2017-08-31T10:17:12.373Z,16.4
2017-08-31T10:18:13.765Z,16.4
2017-08-31T10:19:15.157Z,16.2
2017-08-31T10:20:16.554Z,16.2
2017-08-31T10:21:17.949Z,16.2
2017-08-31T10:22:19.344Z,16.2
2017-08-31T10:23:20.740Z,16.2
2017-08-31T10:24:22.135Z,16.2
2017-08-31T10:25:23.527Z,16.2
2017-08-31T10:26:24.924Z,16.2
2017-08-31T10:27:26.321Z,16.1
2017-08-31T10:28:27.718Z,16.2
2017-08-31T10:29:29.113Z,16.2
2017-08-31T10:30:30.510Z,16.2
2017-08-31T10:31:31.908Z,16.1
2017-08-31T10:32:33.304Z,16.2
2017-08-31T10:33:34.698Z,16.2
2017-08-31T10:34:36.098Z,16.3
2017-08-31T10:35:37.496Z,16.2
2017-08-31T10:36:38.893Z,16.2
2017-08-31T10:37:40.293Z,16.2
2017-08-31T10:38:41.689Z,16.2
2017-08-31T10:39:43.087Z,16.2
2017-08-31T10:40:44.480Z,16.4
2017-08-31T10:41:45.875Z,16.3
2017-08-31T10:42:47.273Z,16.3
2017-08-31T10:43:48.669Z,16.4
2017-08-31T10:44:50.067Z,16.4
2017-08-31T10:45:51.465Z,16.5
2017-08-31T10:46:52.862Z,16.6
2017-08-31T10:47:54.258Z,16.6
2017-08-31T10:48:55.656Z,16.6
2017-08-31T10:49:57.058Z,16.4
2017-08-31T10:50:58.456Z,16.4
2017-08-31T10:51:59.865Z,16.4
2017-08-31T10:53:01.270Z,16.5
2017-08-31T10:54:02.668Z,16.5
2017-08-31T10:55:04.062Z,16.6
2017-08-31T10:56:05.459Z,16.5
2017-08-31T10:57:06.856Z,16.6
2017-08-31T10:58:08.258Z,16.4
2017-08-31T10:59:09.651Z,16.5
2017-08-31T11:00:11.048Z,16.5
2017-08-31T11:01:12.444Z,16.5
2017-08-31T11:02:13.839Z,16.4
2017-08-31T11:03:15.237Z,16.5
2017-08-31T11:04:16.632Z,16.6
2017-08-31T11:05:18.030Z,16.8
2017-08-31T11:06:19.429Z,16.7
2017-08-31T11:07:20.825Z,16.7
2017-08-31T11:08:22.218Z,16.8
2017-08-31T11:09:23.615Z,16.9
2017-08-31T11:10:25.018Z,16.9
2017-08-31T11:11:26.411Z,17.0
2017-08-31T11:12:27.809Z,17.1
2017-08-31T11:13:29.207Z,17.2
2017-08-31T11:14:30.604Z,17.1
2017-08-31T11:15:31.999Z,17.1
2017-08-31T11:16:33.395Z,17.1
2017-08-31T11:17:34.793Z,17.0
2017-08-31T11:18:36.190Z,17.0
2017-08-31T11:19:37.593Z,16.8
2017-08-31T11:20:38.994Z,17.0
2017-08-31T11:21:40.392Z,17.1
2017-08-31T11:22:41.789Z,17.4
2017-08-31T11:23:43.188Z,17.3
2017-08-31T11:24:44.586Z,17.4
2017-08-31T11:25:45.985Z,17.8
2017-08-31T11:26:47.386Z,17.9
2017-08-31T11:27:48.852Z,18.0
2017-08-31T11:28:50.316Z,17.9
2017-08-31T11:29:51.675Z,18.0
2017-08-31T11:30:52.990Z,17.9
2017-08-31T11:31:54.450Z,17.9
2017-08-31T11:32:55.822Z,18.0
2017-08-31T11:33:57.260Z,18.1
2017-08-31T11:34:58.640Z,18.0
2017-08-31T11:35:59.963Z,18.0
2017-08-31T11:37:01.446Z,18.0
2017-08-31T11:38:02.769Z,18.0
2017-08-31T11:39:04.190Z,18.1
2017-08-31T11:40:05.588Z,18.0
2017-08-31T11:41:06.985Z,18.0
2017-08-31T11:42:08.384Z,17.9
2017-08-31T11:43:09.782Z,18.0
2017-08-31T11:44:11.225Z,18.0
2017-08-31T11:45:12.622Z,18.0
2017-08-31T11:46:14.018Z,17.9
2017-08-31T11:47:15.415Z,18.1
2017-08-31T11:48:16.816Z,18.0
2017-08-31T11:49:18.216Z,18.1
2017-08-31T11:50:19.612Z,18.0
2017-08-31T11:51:21.009Z,18.0
2017-08-31T11:52:22.408Z,18.0
2017-08-31T11:53:23.803Z,17.8
2017-08-31T11:54:25.200Z,17.9
2017-08-31T11:55:26.603Z,17.8
2017-08-31T11:56:28.002Z,17.8
2017-08-31T11:57:29.400Z,17.7
2017-08-31T11:58:30.793Z,17.7
2017-08-31T11:59:32.192Z,17.8
2017-08-31T12:00:33.587Z,17.9
2017-08-31T12:01:34.983Z,18.0
2017-08-31T12:02:36.385Z,17.9
2017-08-31T12:03:37.783Z,18.0
2017-08-31T12:04:39.179Z,18.0
2017-08-31T12:05:40.572Z,18.0
2017-08-31T12:06:41.970Z,18.0
2017-08-31T12:07:43.374Z,17.9
2017-08-31T12:08:44.765Z,17.9
2017-08-31T12:09:46.164Z,17.9
2017-08-31T12:10:47.563Z,18.0
2017-08-31T12:11:48.958Z,18.0
2017-08-31T12:12:50.353Z,17.9
2017-08-31T12:13:51.751Z,17.9
2017-08-31T12:14:53.150Z,17.8
2017-08-31T12:15:54.550Z,17.7
2017-08-31T12:16:55.949Z,17.7
2017-08-31T12:17:57.355Z,17.7
2017-08-31T12:18:58.744Z,17.9
2017-08-31T12:20:00.143Z,17.7
2017-08-31T12:21:01.541Z,17.6
2017-08-31T12:22:02.940Z,17.6
2017-08-31T12:23:04.337Z,17.6
2017-08-31T12:24:05.734Z,17.7
2017-08-31T12:25:07.139Z,17.8
2017-08-31T12:26:08.543Z,17.9
2017-08-31T12:27:09.939Z,18.0
2017-08-31T12:28:11.342Z,18.1
2017-08-31T12:29:12.734Z,18.2
2017-08-31T12:30:14.133Z,18.3
2017-08-31T12:31:15.533Z,18.3
2017-08-31T12:32:16.930Z,18.4
2017-08-31T12:33:18.329Z,18.6
2017-08-31T12:34:19.723Z,18.6
2017-08-31T12:35:21.121Z,18.5
2017-08-31T12:36:22.519Z,18.2
2017-08-31T12:37:23.916Z,18.2
2017-08-31T12:38:25.322Z,18.4
2017-08-31T12:39:26.714Z,18.4
2017-08-31T12:40:28.112Z,18.2
2017-08-31T12:41:29.510Z,18.2
2017-08-31T12:42:30.906Z,18.4
2017-08-31T12:43:32.304Z,18.6
2017-08-31T12:44:33.704Z,18.7
2017-08-31T12:45:35.107Z,19.0
2017-08-31T12:46:36.506Z,19.0
2017-08-31T12:47:37.900Z,18.9
2017-08-31T12:48:39.299Z,19.0
2017-08-31T12:49:40.696Z,19.0
2017-08-31T12:50:42.095Z,18.7
2017-08-31T12:51:43.493Z,18.8
2017-08-31T12:52:44.893Z,18.7
2017-08-31T12:53:46.293Z,18.8
2017-08-31T12:54:47.688Z,18.7
2017-08-31T12:55:49.088Z,18.9
2017-08-31T12:56:50.486Z,18.9
2017-08-31T12:57:51.884Z,18.7
2017-08-31T12:58:53.283Z,18.7
2017-08-31T12:59:54.684Z,18.7
2017-08-31T13:00:56.082Z,18.5
2017-08-31T13:01:57.481Z,18.7
2017-08-31T13:02:58.876Z,18.7
2017-08-31T13:04:00.274Z,18.8
2017-08-31T13:05:01.669Z,18.4
2017-08-31T13:06:03.069Z,18.5
2017-08-31T13:07:04.468Z,18.6
2017-08-31T13:08:05.866Z,18.8
2017-08-31T13:09:07.263Z,18.8
2017-08-31T13:10:08.661Z,18.7
2017-08-31T13:11:10.065Z,18.6
2017-08-31T13:12:11.478Z,18.5
2017-08-31T13:13:12.865Z,18.3
2017-08-31T13:14:14.264Z,18.4
2017-08-31T13:15:15.665Z,18.6
2017-08-31T13:16:17.064Z,18.7
2017-08-31T13:17:18.461Z,18.9
2017-08-31T13:18:19.858Z,19.1
2017-08-31T13:19:21.260Z,19.3
2017-08-31T13:20:22.660Z,19.2
2017-08-31T13:21:24.057Z,19.1
2017-08-31T13:22:25.455Z,19.4
2017-08-31T13:23:26.851Z,19.5
2017-08-31T13:24:28.250Z,19.6
2017-08-31T13:25:29.651Z,19.9
2017-08-31T13:26:31.051Z,19.9
2017-08-31T13:27:32.452Z,20.0
2017-08-31T13:28:33.852Z,20.0
2017-08-31T13:29:35.258Z,20.2
2017-08-31T13:30:36.650Z,20.3
2017-08-31T13:31:38.047Z,20.2
2017-08-31T13:32:39.446Z,20.4
2017-08-31T13:33:40.865Z,20.2
2017-08-31T13:34:42.245Z,20.4
2017-08-31T13:35:43.648Z,20.5
2017-08-31T13:36:45.048Z,20.7